| Fund (series)↕ | Registrant↕ | Ticker↕ | Latest report↕ | Net assets▲ |
|---|---|---|---|---|
| Manor Growth Fund S000012150 | MANOR INVESTMENT FUNDS INC CIK 0001003924 | — | 2026-03-31 | $16.42M |
| Calvert Global Small-Cap Equity Fund S000080180 |
| — |
| 2026-03-31 |
| $16.45M |
| Rayliant-ChinaAMC Transformative China Tech ETF S000093092 | Rayliant Funds Trust CIK 0002061770 | — | 2026-03-31 | $16.51M |
| Regan Fixed Rate MBS ETF S000091134 | Advisor Managed Portfolios CIK 0001970751 | MBSX | 2026-03-31 | $16.51M |
| Fidelity Flex Freedom Blend 2020 Fund S000056415 | Fidelity Aberdeen Street Trust CIK 0000880195 | — | 2026-03-31 | $16.58M |
| VanEck Morningstar Global Wide Moat ETF S000063090 | VanEck ETF Trust CIK 0001137360 | MOTG | 2026-03-31 | $16.63M |
| Lincoln Hedged Nasdaq-100 Fund S000073099 | LINCOLN VARIABLE INSURANCE PRODUCTS TRU… CIK 0000914036 | — | 2026-03-31 | $16.65M |
| GraniteShares YieldBOOST Bitcoin ETF S000086456 | GraniteShares ETF Trust CIK 0001689873 | XBTY | 2026-03-31 | $16.68M |
| GraniteShares 2x Short COIN Daily ETF S000081153 | GraniteShares ETF Trust CIK 0001689873 | — | 2026-03-31 | $16.74M |
| PROFUND VP CONSUMER DISCRETIONARY S000003967 | ProFunds CIK 0001039803 | — | 2026-03-31 | $16.77M |
| Tradr 2x Short IREN Daily ETF S000100813 | INVESTMENT MANAGERS SERIES TRUST II CIK 0001587982 | IREZ | 2026-03-31 | $16.78M |
| Swan Enhanced Dividend Income ETF S000083429 | NORTHERN LIGHTS FUND TRUST III CIK 0001537140 | SCLZ | 2026-03-31 | $16.82M |
| AMG GW&K Muni Income ETF S000095116 | AMG ETF Trust CIK 0000879947 | MUNX | 2026-03-31 | $16.84M |
| GraniteShares 2x Long DELL Daily ETF S000088317 | GraniteShares ETF Trust CIK 0001689873 | DLLL | 2026-03-31 | $16.85M |
| T-REX 2X Long CRWV Daily Target ETF S000087465 | ETF Opportunities Trust CIK 0001771146 | CRWU | 2026-03-31 | $16.96M |
| Carillon Chartwell Mid Cap Value Fund S000075960 | Carillon Series Trust CIK 0000897111 | — | 2026-03-31 | $16.97M |
| Davis Government Bond Fund S000003443 | DAVIS SERIES INC CIK 0000203002 | — | 2026-03-31 | $17.00M |
| PIMCO International Bond Portfolio (Unhedged) S000010206 | PIMCO Variable Insurance Trust CIK 0001047304 | — | 2026-03-31 | $17.01M |
| Fidelity Sustainable Target Date 2040 Fund S000080310 | Fidelity Aberdeen Street Trust CIK 0000880195 | — | 2026-03-31 | $17.05M |
| First Trust Capital Strength Hedged Equity Portfolio S000080226 | First Trust Variable Insurance Trust CIK 0001537395 | — | 2026-03-31 | $17.09M |
| Bitwise Bitcoin Standard Corporations ETF S000091079 | Bitwise Funds Trust CIK 0001928561 | OWNB | 2026-03-31 | $17.13M |
| TrueShares Structured Outcome (March) ETF S000092059 | Elevation Series Trust CIK 0001936157 | MARZ | 2026-03-31 | $17.16M |
| Reckoner BBB-B CLO Annual ETF S000100851 | Advisor Managed Portfolios CIK 0001970751 | RCLY | 2026-03-31 | $17.20M |
| State Street(R) SPDR(R) S&P Kensho Smart Mobility ETF S000059701 | SPDR SERIES TRUST CIK 0001064642 | HAIL | 2026-03-31 | $17.21M |
| VanEck Gaming ETF S000020425 | VanEck ETF Trust CIK 0001137360 | GENZ | 2026-03-31 | $17.26M |
| GuidePath Conservative Income Fund S000061596 | GPS Funds II CIK 0001504079 | — | 2026-03-31 | $17.31M |
| ALPS Global Opportunity Portfolio S000046802 | ALPS VARIABLE INVESTMENT TRUST CIK 0001382990 | — | 2026-03-31 | $17.34M |
| Roundhill NFLX WeeklyPay ETF S000092325 | Roundhill ETF Trust CIK 0001976517 | NFLW | 2026-03-31 | $17.36M |
| First Trust Bloomberg Shareholder Yield ETF S000058146 | First Trust Exchange-Traded Fund VI CIK 0001552740 | SHRY | 2026-03-31 | $17.40M |
| Eaton Vance Preferred Securities and Income ETF S000101437 | Morgan Stanley ETF Trust CIK 0001676326 | — | 2026-03-31 | $17.72M |
| WisdomTree U.S. Corporate Bond Fund S000053481 | WisdomTree Trust CIK 0001350487 | QIG | 2026-03-31 | $17.72M |
| Kinetics Multi-Disciplinary Income Fund Feeder 1 S000020819 | Kinetics Mutual Funds CIK 0001083387 | — | 2026-03-31A | $17.73M |
| State Street U.S. Equity V.I.S. Fund S000001639 | STATE STREET VARIABLE INSURANCE SERIES … CIK 0000746687 | — | 2026-03-31 | $17.80M |
| Bitwise MSTR Option Income Strategy ETF S000091077 | Bitwise Funds Trust CIK 0001928561 | — | 2026-03-31 | $17.83M |
| Parnassus Value Select ETF S000089217 | Parnassus Funds II CIK 0000866256 | PRVS | 2026-03-31 | $17.92M |
| FT Vest Bitcoin Strategy & Target Income ETF S000090441 | First Trust Exchange-Traded Fund CIK 0001329377 | DFII | 2026-03-31 | $17.94M |
| Lazard Retirement Global Dynamic Multi-Asset Portfolio S000037000 | LAZARD RETIREMENT SERIES INC CIK 0001033669 | — | 2026-03-31 | $17.96M |
| Kinetics Multi-Disciplinary Income Portfolio S000021885 | Kinetics Portfolios Trust CIK 0001113229 | — | 2026-03-31A | $17.96M |
| Rareview Tax Advantaged Income ETF S000069799 | Collaborative Investment Series Trust CIK 0001719812 | RTAI | 2026-03-31 | $17.97M |
| Catalyst Buffered Shield Fund S000058618 | MUTUAL FUND SERIES TRUST CIK 0001355064 | — | 2026-03-31 | $17.98M |
| Rational/RGN Hedged Equity Fund S000086525 | Mutual Fund & Variable Insurance Trust CIK 0000810695 | — | 2026-03-31 | $18.06M |
| Gotham Short Strategies ETF S000082296 | Tidal Trust I CIK 0001742912 | SHRT | 2026-03-31 | $18.07M |
| Guinness Atkinson Alternative Energy Fund S000009156 | GUINNESS ATKINSON FUNDS CIK 0000919160 | — | 2026-03-31 | $18.08M |
| KraneShares 2x Long PDD Daily ETF S000089271 | Krane Shares Trust CIK 0001547576 | KPDD | 2026-03-31 | $18.14M |
| Horizon Kinetics Medical ETF S000078972 | Listed Funds Trust CIK 0001683471 | MEDX | 2026-03-31 | $18.16M |
| Wasatch International Value Fund S000088934 | WASATCH FUNDS TRUST CIK 0000806633 | — | 2026-03-31 | $18.17M |
| NEOS Boosted Bitcoin High Income ETF S000096994 | NEOS ETF Trust CIK 0001848758 | XBCI | 2026-03-31 | $18.19M |
| PROFUND VP ASIA 30 S000003952 | ProFunds CIK 0001039803 | — | 2026-03-31 | $18.22M |
| Matthews Emerging Markets Discovery Active ETF S000083828 | Matthews International Funds CIK 0000923184 | MEMS | 2026-03-31 | $18.29M |
| U.S. Global Sea to Sky Cargo ETF S000072692 | ETF Series Solutions CIK 0001540305 | SEA | 2026-03-31 | $18.37M |